Muzaffarabad Weather



Muzaffarabad's Current Weather

Temprature 4.55o overcast clouds

overcast clouds

Rain: 0 %

Min Temprature4.55o
Max Temprature4.55o
Humidity47
Wind Speed3.96 m/h
Sun Rise06:38:53
Sun Set17:59:27
Current Time: 27-Feb-2020 00:41:29
Lat/Lon: 34.37, 73.47




Muzaffarabad's Geo Location



Muzaffarabad's Weather Forecast

Time Overall Temp Min Temp Max Temp Humidity Wind Speed Rain
27-Feb-2020 (Thu)
02:00:00 overcast clouds 4.550 4.550 4.550 47 3.96 m/h 0 %
05:00:00 overcast clouds 4.820 4.820 4.820 46 3.34 m/h 0 %
08:00:00 overcast clouds 6.610 6.610 6.610 48 3.35 m/h 0 %
11:00:00 overcast clouds 13.210 13.210 13.210 31 1.54 m/h 0 %
14:00:00 overcast clouds 14.420 14.420 14.420 32 2.04 m/h 0 %
17:00:00 scattered clouds 13.040 13.040 13.040 43 1.08 m/h 0 %
20:00:00 clear sky 7.150 7.150 7.150 54 3.9 m/h 0 %
23:00:00 light rain 7.900 7.900 7.900 52 3.36 m/h 31 %
28-Feb-2020 (Fri)
02:00:00 light rain 7.010 7.010 7.010 66 3.08 m/h 94 %
05:00:00 light rain 6.040 6.040 6.040 79 3.38 m/h 150 %
08:00:00 light rain 7.280 7.280 7.280 71 3.14 m/h 150 %
11:00:00 light rain 12.640 12.640 12.640 52 2.51 m/h 88 %
14:00:00 light rain 12.670 12.670 12.670 53 1.82 m/h 125 %
17:00:00 light rain 11.720 11.720 11.720 59 2.11 m/h 138 %
20:00:00 light rain 7.250 7.250 7.250 69 3.81 m/h 88 %
23:00:00 light rain 6.790 6.790 6.790 69 4.1 m/h 13 %
29-Feb-2020 (Sat)
02:00:00 overcast clouds 6.860 6.860 6.860 72 2.52 m/h 0 %
05:00:00 light rain 5.360 5.360 5.360 85 1.99 m/h 219 %
08:00:00 light rain 6.990 6.990 6.990 75 1.77 m/h 69 %
11:00:00 light rain 6.540 6.540 6.540 87 0.76 m/h 256 %
14:00:00 light rain 9.830 9.830 9.830 64 1.06 m/h 281 %
17:00:00 light rain 10.180 10.180 10.180 66 1.27 m/h 25 %
20:00:00 light rain 6.840 6.840 6.840 71 2.66 m/h 25 %
23:00:00 broken clouds 5.080 5.080 5.080 69 3.34 m/h 0 %
01-Mar-2020 (Sun)
02:00:00 clear sky 4.420 4.420 4.420 64 3.43 m/h 0 %
05:00:00 clear sky 4.230 4.230 4.230 62 3.51 m/h 0 %
08:00:00 clear sky 7.100 7.100 7.100 60 2.94 m/h 0 %
11:00:00 clear sky 12.910 12.910 12.910 44 2.12 m/h 0 %
14:00:00 light rain 13.360 13.360 13.360 47 2.27 m/h 31 %
17:00:00 light rain 11.680 11.680 11.680 55 1.59 m/h 131 %
20:00:00 clear sky 7.350 7.350 7.350 63 3.38 m/h 0 %
23:00:00 clear sky 5.880 5.880 5.880 57 3.93 m/h 0 %
02-Mar-2020 (Mon)
02:00:00 clear sky 5.220 5.220 5.220 56 3.91 m/h 0 %
05:00:00 clear sky 4.570 4.570 4.570 54 4.06 m/h 0 %
08:00:00 clear sky 7.400 7.400 7.400 52 2.99 m/h 0 %
11:00:00 scattered clouds 13.160 13.160 13.160 36 2.03 m/h 0 %
14:00:00 broken clouds 14.640 14.640 14.640 35 2.42 m/h 0 %
17:00:00 broken clouds 13.120 13.120 13.120 46 1.07 m/h 0 %
20:00:00 few clouds 8.180 8.180 8.180 58 2.47 m/h 0 %
23:00:00 light rain 6.320 6.320 6.320 57 3.51 m/h 19 %

Famous Cities (61)